createdAt,value
2019-04-22T00:00:57.686Z,8.97
2019-04-22T00:03:39.004Z,8.73
2019-04-22T00:10:13.388Z,8.50
2019-04-22T00:12:53.117Z,8.40
2019-04-22T00:15:27.369Z,8.73
2019-04-22T00:18:14.444Z,8.60
2019-04-22T00:21:04.823Z,9.00
2019-04-22T00:23:43.398Z,8.57
2019-04-22T00:35:06.084Z,9.23
2019-04-22T00:38:03.793Z,8.70
2019-04-22T00:41:08.203Z,8.33
2019-04-22T00:43:37.520Z,8.37
2019-04-22T00:46:14.336Z,9.07
2019-04-22T00:49:33.153Z,8.80
2019-04-22T00:51:22.532Z,8.97
2019-04-22T00:54:13.672Z,9.77
2019-04-22T00:57:12.320Z,7.70
2019-04-22T00:59:33.008Z,9.37
2019-04-22T01:02:13.157Z,9.10
2019-04-22T01:05:00.744Z,9.50
2019-04-22T01:08:01.165Z,8.43
2019-04-22T01:10:39.005Z,9.03
2019-04-22T01:13:04.898Z,9.20
2019-04-22T01:18:37.429Z,9.33
2019-04-22T01:21:29.872Z,10.17
2019-04-22T01:24:22.125Z,9.30
2019-04-22T01:26:49.011Z,9.63
2019-04-22T01:32:43.032Z,8.60
2019-04-22T01:39:07.071Z,9.00
2019-04-22T01:41:42.516Z,10.27
2019-04-22T01:44:35.760Z,8.53
2019-04-22T01:50:37.060Z,9.43
2019-04-22T01:53:19.351Z,8.87
2019-04-22T01:56:28.837Z,9.43
2019-04-22T01:58:59.420Z,8.60
2019-04-22T02:01:55.108Z,9.73
2019-04-22T02:04:38.601Z,9.30
2019-04-22T02:07:16.734Z,9.60
2019-04-22T02:09:56.039Z,8.90
2019-04-22T02:12:43.466Z,9.20
2019-04-22T02:15:23.511Z,8.93
2019-04-22T02:17:54.874Z,10.47
2019-04-22T02:20:35.918Z,9.50
2019-04-22T02:26:27.272Z,9.13
2019-04-22T02:28:55.085Z,10.10
2019-04-22T02:31:51.119Z,9.80
2019-04-22T02:41:16.073Z,10.00
2019-04-22T02:47:07.869Z,9.97
2019-04-22T02:52:14.962Z,9.70
2019-04-22T02:57:47.409Z,9.70
2019-04-22T03:04:01.624Z,9.67
2019-04-22T03:09:07.269Z,9.97
2019-04-22T03:14:22.685Z,9.53
2019-04-22T03:19:57.585Z,10.97
2019-04-22T03:22:34.551Z,8.90
2019-04-22T03:28:10.245Z,9.17
2019-04-22T03:30:47.385Z,9.83
2019-04-22T03:40:07.321Z,10.40
2019-04-22T03:54:36.889Z,9.37
2019-04-22T03:57:22.051Z,9.43
2019-04-22T03:59:54.082Z,8.83
2019-04-22T04:02:21.614Z,10.83
2019-04-22T04:04:52.397Z,9.93
2019-04-22T04:07:42.598Z,9.83
2019-04-22T04:10:30.097Z,9.80
2019-04-22T04:13:03.347Z,9.40
2019-04-22T04:15:53.583Z,10.47
2019-04-22T04:18:22.245Z,9.70
2019-04-22T04:26:37.378Z,9.90
2019-04-22T04:40:11.660Z,11.00
2019-04-22T04:48:01.044Z,9.73
2019-04-22T04:51:12.159Z,9.43
2019-04-22T04:53:41.407Z,10.60
2019-04-22T04:59:16.952Z,10.30
2019-04-22T05:01:41.577Z,8.73
2019-04-22T05:04:41.363Z,9.80
2019-04-22T05:07:27.086Z,9.77
2019-04-22T05:09:46.254Z,9.07
2019-04-22T05:18:06.199Z,9.60
2019-04-22T05:21:02.925Z,8.77
2019-04-22T05:23:37.230Z,9.20
2019-04-22T05:26:26.082Z,9.13
2019-04-22T05:29:17.038Z,8.43
2019-04-22T05:31:52.176Z,8.27
2019-04-22T05:37:50.645Z,8.57
2019-04-22T05:40:30.728Z,7.30
2019-04-22T05:43:00.368Z,7.27
2019-04-22T05:45:57.885Z,8.37
2019-04-22T05:48:46.671Z,8.27
2019-04-22T05:57:57.685Z,8.50
2019-04-22T06:06:37.132Z,6.90
2019-04-22T06:09:24.879Z,8.10
2019-04-22T06:12:28.294Z,7.70
2019-04-22T06:15:22.327Z,8.27
2019-04-22T06:24:08.282Z,7.13
2019-04-22T06:27:08.093Z,8.40
2019-04-22T06:29:43.134Z,7.20
2019-04-22T06:32:42.112Z,8.50
2019-04-22T06:39:19.062Z,7.43
2019-04-22T06:42:00.767Z,7.77
2019-04-22T06:47:00.608Z,8.50
2019-04-22T06:49:49.486Z,8.50
2019-04-22T06:52:49.114Z,9.87
2019-04-22T06:55:05.253Z,9.10
2019-04-22T06:57:41.707Z,9.83
2019-04-22T07:00:24.437Z,11.93
2019-04-22T07:03:33.395Z,9.47
2019-04-22T07:05:46.330Z,9.60
2019-04-22T07:09:06.668Z,8.60
2019-04-22T07:13:55.299Z,9.67
2019-04-22T07:19:58.399Z,10.00
2019-04-22T07:22:43.317Z,10.20
2019-04-22T07:24:58.905Z,11.03
2019-04-22T07:27:53.833Z,10.50
2019-04-22T07:30:33.610Z,10.53
2019-04-22T07:39:05.723Z,10.37
2019-04-22T07:41:58.605Z,10.73
2019-04-22T07:44:45.179Z,9.80
2019-04-22T07:50:15.305Z,11.80
2019-04-22T07:58:58.330Z,10.77
2019-04-22T08:05:20.651Z,10.53
2019-04-22T08:07:49.243Z,9.30
2019-04-22T08:10:40.306Z,9.73
2019-04-22T08:13:22.984Z,10.23
2019-04-22T08:16:16.401Z,9.33
2019-04-22T08:19:04.125Z,10.30
2019-04-22T08:21:49.051Z,10.73
2019-04-22T08:24:22.658Z,10.23
2019-04-22T08:26:53.235Z,9.50
2019-04-22T08:32:58.898Z,11.13
2019-04-22T08:35:52.430Z,10.27
2019-04-22T08:38:24.131Z,11.90
2019-04-22T08:41:06.853Z,11.00
2019-04-22T08:44:02.569Z,9.77
2019-04-22T08:49:57.175Z,9.30
2019-04-22T08:54:51.318Z,9.73
2019-04-22T09:00:51.847Z,9.63
2019-04-22T09:03:34.238Z,7.67
2019-04-22T09:15:16.577Z,10.40
2019-04-22T09:18:12.816Z,10.13
2019-04-22T09:21:04.722Z,9.70
2019-04-22T09:26:22.873Z,9.40
2019-04-22T09:28:59.906Z,9.30
2019-04-22T09:31:53.639Z,9.50
2019-04-22T09:34:23.535Z,9.17
2019-04-22T09:37:01.536Z,8.83
2019-04-22T09:39:55.354Z,7.07
2019-04-22T09:42:39.154Z,7.00
2019-04-22T09:48:34.740Z,7.10
2019-04-22T09:51:05.886Z,8.07
2019-04-22T09:53:54.176Z,6.70
2019-04-22T10:02:55.376Z,8.47
2019-04-22T10:05:35.736Z,8.80
2019-04-22T10:08:03.142Z,7.40
2019-04-22T10:10:56.587Z,6.80
2019-04-22T10:13:37.376Z,6.40
2019-04-22T10:16:08.919Z,5.93
2019-04-22T10:18:38.944Z,5.70
2019-04-22T10:21:19.063Z,5.67
2019-04-22T10:24:03.446Z,6.43
2019-04-22T10:29:10.743Z,5.10
2019-04-22T10:35:19.094Z,5.03
2019-04-22T10:38:10.342Z,5.67
2019-04-22T10:40:58.583Z,5.07
2019-04-22T10:43:25.326Z,5.40
2019-04-22T10:45:59.792Z,5.33
2019-04-22T10:52:02.688Z,4.30
2019-04-22T10:54:43.261Z,4.40
2019-04-22T10:57:22.912Z,4.33
2019-04-22T11:02:48.184Z,4.77
2019-04-22T11:06:01.261Z,4.20
2019-04-22T11:08:52.813Z,3.70
2019-04-22T11:13:56.114Z,3.90
2019-04-22T11:16:43.512Z,4.57
2019-04-22T11:22:30.032Z,3.80
2019-04-22T11:25:26.137Z,3.57
2019-04-22T11:27:53.580Z,3.50
2019-04-22T11:31:06.202Z,4.87
2019-04-22T11:33:45.347Z,4.00
2019-04-22T11:36:11.390Z,4.33
2019-04-22T11:41:49.968Z,4.23
2019-04-22T11:44:37.158Z,4.20
2019-04-22T11:47:17.197Z,3.80
2019-04-22T11:49:43.889Z,3.93
2019-04-22T11:52:22.557Z,3.63
2019-04-22T11:55:08.961Z,3.80
2019-04-22T11:57:47.946Z,3.97
2019-04-22T12:00:36.963Z,3.70
2019-04-22T12:06:45.850Z,3.07
2019-04-22T12:09:53.359Z,3.53
2019-04-22T12:12:34.538Z,2.70
2019-04-22T12:15:15.091Z,2.67
2019-04-22T12:17:55.276Z,3.53
2019-04-22T12:20:35.057Z,3.10
2019-04-22T12:26:48.296Z,3.10
2019-04-22T12:32:25.507Z,2.70
2019-04-22T12:38:33.432Z,2.40
2019-04-22T12:44:24.458Z,2.30
2019-04-22T12:56:25.830Z,2.63
2019-04-22T12:58:59.516Z,2.90
2019-04-22T13:01:39.242Z,3.33
2019-04-22T13:10:05.968Z,3.73
2019-04-22T13:16:10.941Z,3.17
2019-04-22T13:18:43.409Z,3.83
2019-04-22T13:21:10.927Z,3.10
2019-04-22T13:23:57.148Z,3.67
2019-04-22T13:26:38.105Z,2.87
2019-04-22T13:29:19.258Z,3.50
2019-04-22T13:34:46.510Z,3.13
2019-04-22T13:37:23.235Z,2.83
2019-04-22T13:39:49.364Z,2.90
2019-04-22T13:42:19.385Z,3.10
2019-04-22T13:44:49.808Z,3.40
2019-04-22T13:47:30.486Z,3.13
2019-04-22T13:56:10.593Z,4.50
2019-04-22T13:58:24.359Z,4.30
2019-04-22T14:01:36.572Z,4.67
2019-04-22T14:07:16.930Z,4.73
2019-04-22T14:09:56.424Z,4.80
2019-04-22T14:13:00.203Z,5.00
2019-04-22T14:15:27.772Z,5.17
2019-04-22T14:18:21.277Z,4.87
2019-04-22T14:21:01.150Z,5.57
2019-04-22T14:23:28.393Z,5.03
2019-04-22T14:26:01.532Z,4.70
2019-04-22T14:28:29.258Z,4.90
2019-04-22T14:31:02.372Z,4.47
2019-04-22T14:33:54.753Z,5.30
2019-04-22T14:36:30.155Z,5.27
2019-04-22T14:39:30.356Z,5.30
2019-04-22T14:42:28.372Z,4.40
2019-04-22T14:48:01.140Z,4.73
2019-04-22T14:50:37.590Z,4.43
2019-04-22T14:56:06.545Z,4.60
2019-04-22T14:58:40.561Z,5.00
2019-04-22T15:04:11.441Z,4.53
2019-04-22T15:06:59.001Z,4.30
2019-04-22T15:09:32.503Z,4.80
2019-04-22T15:12:30.006Z,3.97
2019-04-22T15:18:33.716Z,4.30
2019-04-22T15:21:14.753Z,5.50
2019-04-22T15:27:14.162Z,5.17
2019-04-22T15:33:49.839Z,5.13
2019-04-22T15:36:28.309Z,5.30
2019-04-22T15:42:09.526Z,4.50
2019-04-22T15:44:37.669Z,4.70
2019-04-22T15:47:13.066Z,6.10
2019-04-22T15:53:31.558Z,5.23
2019-04-22T16:01:28.870Z,4.97
2019-04-22T16:03:58.896Z,5.50
2019-04-22T16:09:13.249Z,5.20
2019-04-22T16:12:16.329Z,5.03
2019-04-22T16:14:47.365Z,5.07
2019-04-22T16:17:16.749Z,5.70
2019-04-22T16:20:23.320Z,4.77
2019-04-22T16:28:57.624Z,5.20
2019-04-22T16:31:29.373Z,4.97
2019-04-22T16:34:03.005Z,5.47
2019-04-22T16:36:29.329Z,5.13
2019-04-22T16:38:57.008Z,5.07
2019-04-22T16:41:24.433Z,5.40
2019-04-22T16:43:50.817Z,4.90
2019-04-22T16:46:16.916Z,5.47
2019-04-22T16:48:43.390Z,5.10
2019-04-22T16:51:09.941Z,5.00
2019-04-22T16:53:37.079Z,4.90
2019-04-22T16:56:04.803Z,5.30
2019-04-22T16:58:30.901Z,5.20
2019-04-22T17:00:58.602Z,5.40
2019-04-22T17:03:26.913Z,5.30
2019-04-22T17:06:11.793Z,4.97
2019-04-22T17:08:39.013Z,5.90
2019-04-22T17:11:05.335Z,4.83
2019-04-22T17:13:33.980Z,5.30
2019-04-22T17:16:01.947Z,5.57
2019-04-22T17:18:27.393Z,6.07
2019-04-22T17:20:54.890Z,5.60
2019-04-22T17:23:21.039Z,5.87
2019-04-22T17:25:48.314Z,5.70
2019-04-22T17:28:15.391Z,6.70
2019-04-22T17:30:41.581Z,5.77
2019-04-22T17:33:08.431Z,6.13
2019-04-22T17:35:36.021Z,6.27
2019-04-22T17:38:14.251Z,5.87
2019-04-22T17:40:49.109Z,6.10
2019-04-22T17:43:30.049Z,6.90
2019-04-22T17:45:58.428Z,6.20
2019-04-22T17:48:35.718Z,5.60
2019-04-22T17:51:16.137Z,6.70
2019-04-22T17:57:19.290Z,7.57
2019-04-22T17:59:55.275Z,6.60
2019-04-22T18:05:04.221Z,6.40
2019-04-22T18:08:05.528Z,5.90
2019-04-22T18:11:18.178Z,6.00
2019-04-22T18:14:16.797Z,6.13
2019-04-22T18:16:47.625Z,6.70
2019-04-22T18:19:16.717Z,7.10
2019-04-22T18:21:46.199Z,7.00
2019-04-22T18:27:30.492Z,7.50
2019-04-22T18:30:16.637Z,7.13
2019-04-22T18:33:24.341Z,6.37
2019-04-22T18:39:20.843Z,7.47
2019-04-22T18:41:48.216Z,7.20
2019-04-22T18:44:22.864Z,7.23
2019-04-22T18:46:54.986Z,6.70
2019-04-22T18:49:43.447Z,6.77
2019-04-22T18:55:33.838Z,8.17
2019-04-22T18:58:24.897Z,7.50
2019-04-22T19:03:55.203Z,6.27
2019-04-22T19:09:37.649Z,7.77
2019-04-22T19:12:11.765Z,7.03
2019-04-22T19:15:08.243Z,7.77
2019-04-22T19:18:00.011Z,6.20
2019-04-22T19:20:31.484Z,7.37
2019-04-22T19:22:57.132Z,7.97
2019-04-22T19:25:37.057Z,7.43
2019-04-22T19:28:17.914Z,8.23
2019-04-22T19:31:02.810Z,8.23
2019-04-22T19:33:40.606Z,10.83
2019-04-22T19:36:20.519Z,9.70
2019-04-22T19:38:59.117Z,8.03
2019-04-22T19:41:59.180Z,9.07
2019-04-22T19:44:43.775Z,9.07
2019-04-22T19:47:24.026Z,8.53
2019-04-22T19:50:11.752Z,32.57
2019-04-22T19:52:44.581Z,8.33
2019-04-22T19:55:59.938Z,9.93
2019-04-22T20:07:51.008Z,7.10
2019-04-22T20:10:51.166Z,8.30
2019-04-22T20:19:45.614Z,7.10
2019-04-22T20:22:32.706Z,7.47
2019-04-22T20:25:12.356Z,7.73
2019-04-22T20:31:33.948Z,7.07
2019-04-22T20:37:28.325Z,7.53
2019-04-22T20:43:43.222Z,7.50
2019-04-22T20:46:31.625Z,7.10
2019-04-22T20:49:00.168Z,8.00
2019-04-22T20:52:11.461Z,6.87
2019-04-22T20:54:35.907Z,8.30
2019-04-22T20:57:01.039Z,7.83
2019-04-22T21:02:36.217Z,7.97
2019-04-22T21:05:34.532Z,7.37
2019-04-22T21:08:33.443Z,7.40
2019-04-22T21:10:49.368Z,7.40
2019-04-22T21:13:50.450Z,8.27
2019-04-22T21:16:40.053Z,6.23
2019-04-22T21:19:04.431Z,7.90
2019-04-22T21:22:03.576Z,7.93
2019-04-22T21:24:49.214Z,8.30
2019-04-22T21:27:35.373Z,6.60
2019-04-22T21:30:14.438Z,6.97
2019-04-22T21:32:53.540Z,6.50
2019-04-22T21:35:54.945Z,6.83
2019-04-22T21:38:25.032Z,7.80
2019-04-22T21:40:45.600Z,6.97
2019-04-22T21:43:42.180Z,6.37
2019-04-22T21:46:32.393Z,6.90
2019-04-22T21:49:10.849Z,7.50
2019-04-22T21:51:48.100Z,7.03
2019-04-22T21:54:15.578Z,6.83
2019-04-22T21:57:53.827Z,7.27
2019-04-22T22:00:17.303Z,7.03
2019-04-22T22:03:02.212Z,6.93
2019-04-22T22:05:30.162Z,7.70
2019-04-22T22:08:30.176Z,7.20
2019-04-22T22:10:51.161Z,6.97
2019-04-22T22:14:07.690Z,6.70
2019-04-22T22:16:29.420Z,7.10
2019-04-22T22:19:25.499Z,6.97
2019-04-22T22:22:25.418Z,8.20
2019-04-22T22:24:39.963Z,7.20
2019-04-22T22:27:09.346Z,7.20
2019-04-22T22:29:57.013Z,7.90
2019-04-22T22:32:40.502Z,6.90
2019-04-22T22:35:26.685Z,7.80
2019-04-22T22:37:51.708Z,7.10
2019-04-22T22:40:30.605Z,7.07
2019-04-22T22:43:11.689Z,7.20
2019-04-22T22:46:08.989Z,8.17
2019-04-22T22:49:05.022Z,7.10
2019-04-22T22:51:40.350Z,7.40
2019-04-22T22:54:33.102Z,8.07
2019-04-22T22:57:25.162Z,7.30
2019-04-22T22:59:57.803Z,7.30
2019-04-22T23:02:36.816Z,7.50
2019-04-22T23:05:05.562Z,8.70
2019-04-22T23:07:40.957Z,7.30
2019-04-22T23:10:33.944Z,8.00
2019-04-22T23:13:14.687Z,7.40
2019-04-22T23:15:37.138Z,8.10
2019-04-22T23:17:54.007Z,7.50
2019-04-22T23:20:48.332Z,8.20
2019-04-22T23:23:51.344Z,8.00
2019-04-22T23:26:35.760Z,8.93
2019-04-22T23:29:16.085Z,7.67
2019-04-22T23:32:00.583Z,8.67
2019-04-22T23:37:23.225Z,8.43
2019-04-22T23:40:32.568Z,8.67
2019-04-22T23:46:29.047Z,8.97
2019-04-22T23:52:14.690Z,8.13
2019-04-22T23:54:58.523Z,8.30
2019-04-22T23:57:26.312Z,9.00
